sensor_id;sensor_type;location;lat;lon;timestamp;P1;durP1;ratioP1;P2;durP2;ratioP2
20170;SDS011;10245;51.344;6.620;2023-04-28T00:00:32;13.73;;;9.10;;
20170;SDS011;10245;51.344;6.620;2023-04-28T00:02:58;11.07;;;8.52;;
20170;SDS011;10245;51.344;6.620;2023-04-28T00:05:21;13.77;;;8.65;;
20170;SDS011;10245;51.344;6.620;2023-04-28T00:07:45;13.63;;;8.40;;
20170;SDS011;10245;51.344;6.620;2023-04-28T00:10:08;12.77;;;8.32;;
20170;SDS011;10245;51.344;6.620;2023-04-28T00:12:32;18.05;;;10.15;;
20170;SDS011;10245;51.344;6.620;2023-04-28T00:14:55;17.25;;;9.30;;
20170;SDS011;10245;51.344;6.620;2023-04-28T00:17:20;12.50;;;9.15;;
20170;SDS011;10245;51.344;6.620;2023-04-28T00:19:43;11.77;;;8.90;;
20170;SDS011;10245;51.344;6.620;2023-04-28T00:22:07;12.27;;;9.27;;
20170;SDS011;10245;51.344;6.620;2023-04-28T00:24:30;13.60;;;9.13;;
20170;SDS011;10245;51.344;6.620;2023-04-28T00:26:54;14.82;;;9.50;;
20170;SDS011;10245;51.344;6.620;2023-04-28T00:29:19;15.05;;;9.55;;
20170;SDS011;10245;51.344;6.620;2023-04-28T00:31:43;17.65;;;9.32;;
20170;SDS011;10245;51.344;6.620;2023-04-28T00:34:08;12.85;;;9.30;;
20170;SDS011;10245;51.344;6.620;2023-04-28T00:36:35;16.08;;;9.98;;
20170;SDS011;10245;51.344;6.620;2023-04-28T00:38:58;15.38;;;10.93;;
20170;SDS011;10245;51.344;6.620;2023-04-28T00:41:21;16.60;;;11.00;;
20170;SDS011;10245;51.344;6.620;2023-04-28T00:43:45;15.93;;;10.07;;
20170;SDS011;10245;51.344;6.620;2023-04-28T00:46:12;16.77;;;10.13;;
20170;SDS011;10245;51.344;6.620;2023-04-28T00:48:43;19.10;;;11.45;;
20170;SDS011;10245;51.344;6.620;2023-04-28T00:51:07;19.40;;;11.57;;
20170;SDS011;10245;51.344;6.620;2023-04-28T00:53:32;19.83;;;11.32;;
20170;SDS011;10245;51.344;6.620;2023-04-28T00:55:55;16.38;;;10.80;;
20170;SDS011;10245;51.344;6.620;2023-04-28T00:58:19;19.25;;;10.68;;
20170;SDS011;10245;51.344;6.620;2023-04-28T01:00:43;21.33;;;11.73;;
20170;SDS011;10245;51.344;6.620;2023-04-28T01:03:07;19.80;;;12.73;;
20170;SDS011;10245;51.344;6.620;2023-04-28T01:05:31;19.05;;;12.32;;
20170;SDS011;10245;51.344;6.620;2023-04-28T01:07:56;17.90;;;11.88;;
20170;SDS011;10245;51.344;6.620;2023-04-28T01:10:20;18.13;;;11.85;;
20170;SDS011;10245;51.344;6.620;2023-04-28T01:12:45;17.27;;;12.43;;
20170;SDS011;10245;51.344;6.620;2023-04-28T01:15:14;21.58;;;12.00;;
20170;SDS011;10245;51.344;6.620;2023-04-28T01:17:41;16.23;;;10.88;;
20170;SDS011;10245;51.344;6.620;2023-04-28T01:20:06;20.63;;;12.45;;
20170;SDS011;10245;51.344;6.620;2023-04-28T01:22:31;17.02;;;11.38;;
20170;SDS011;10245;51.344;6.620;2023-04-28T01:24:56;20.20;;;12.07;;
20170;SDS011;10245;51.344;6.620;2023-04-28T01:27:21;20.60;;;12.43;;
20170;SDS011;10245;51.344;6.620;2023-04-28T01:29:45;20.35;;;12.45;;
20170;SDS011;10245;51.344;6.620;2023-04-28T01:32:08;20.35;;;12.73;;
20170;SDS011;10245;51.344;6.620;2023-04-28T01:34:34;16.30;;;11.95;;
20170;SDS011;10245;51.344;6.620;2023-04-28T01:36:59;18.90;;;11.38;;
20170;SDS011;10245;51.344;6.620;2023-04-28T01:39:22;19.08;;;11.73;;
20170;SDS011;10245;51.344;6.620;2023-04-28T01:41:47;18.17;;;11.65;;
20170;SDS011;10245;51.344;6.620;2023-04-28T01:44:10;19.60;;;12.50;;
20170;SDS011;10245;51.344;6.620;2023-04-28T01:46:35;21.25;;;12.15;;
20170;SDS011;10245;51.344;6.620;2023-04-28T01:48:58;20.50;;;12.48;;
20170;SDS011;10245;51.344;6.620;2023-04-28T01:51:21;18.23;;;11.00;;
20170;SDS011;10245;51.344;6.620;2023-04-28T01:53:47;22.38;;;12.18;;
20170;SDS011;10245;51.344;6.620;2023-04-28T01:56:10;17.77;;;11.32;;
20170;SDS011;10245;51.344;6.620;2023-04-28T01:58:35;17.25;;;11.65;;
20170;SDS011;10245;51.344;6.620;2023-04-28T02:01:01;19.08;;;11.98;;
20170;SDS011;10245;51.344;6.620;2023-04-28T02:03:25;21.30;;;12.20;;
20170;SDS011;10245;51.344;6.620;2023-04-28T02:05:49;17.13;;;11.52;;
20170;SDS011;10245;51.344;6.620;2023-04-28T02:08:12;22.25;;;13.57;;
20170;SDS011;10245;51.344;6.620;2023-04-28T02:10:36;22.55;;;13.10;;
20170;SDS011;10245;51.344;6.620;2023-04-28T02:12:59;21.05;;;11.98;;
20170;SDS011;10245;51.344;6.620;2023-04-28T02:15:24;20.08;;;12.80;;
20170;SDS011;10245;51.344;6.620;2023-04-28T02:17:48;19.08;;;11.95;;
20170;SDS011;10245;51.344;6.620;2023-04-28T02:20:11;18.75;;;12.63;;
20170;SDS011;10245;51.344;6.620;2023-04-28T02:22:35;21.90;;;12.88;;
20170;SDS011;10245;51.344;6.620;2023-04-28T02:24:59;20.33;;;11.43;;
20170;SDS011;10245;51.344;6.620;2023-04-28T02:27:23;15.50;;;12.27;;
20170;SDS011;10245;51.344;6.620;2023-04-28T02:29:48;20.08;;;13.68;;
20170;SDS011;10245;51.344;6.620;2023-04-28T02:32:14;16.67;;;11.57;;
20170;SDS011;10245;51.344;6.620;2023-04-28T02:34:37;20.13;;;12.35;;
20170;SDS011;10245;51.344;6.620;2023-04-28T02:37:01;19.52;;;12.38;;
20170;SDS011;10245;51.344;6.620;2023-04-28T02:39:24;16.60;;;11.40;;
20170;SDS011;10245;51.344;6.620;2023-04-28T02:41:50;17.77;;;11.02;;
20170;SDS011;10245;51.344;6.620;2023-04-28T02:44:13;13.43;;;10.88;;
20170;SDS011;10245;51.344;6.620;2023-04-28T02:46:37;15.35;;;11.35;;
20170;SDS011;10245;51.344;6.620;2023-04-28T02:49:01;19.23;;;11.02;;
20170;SDS011;10245;51.344;6.620;2023-04-28T02:51:25;18.00;;;10.75;;
20170;SDS011;10245;51.344;6.620;2023-04-28T02:53:49;16.05;;;10.93;;
20170;SDS011;10245;51.344;6.620;2023-04-28T02:56:12;18.23;;;11.75;;
20170;SDS011;10245;51.344;6.620;2023-04-28T02:58:36;20.05;;;11.88;;
20170;SDS011;10245;51.344;6.620;2023-04-28T03:00:59;27.05;;;13.32;;
20170;SDS011;10245;51.344;6.620;2023-04-28T03:03:22;39.47;;;15.77;;
20170;SDS011;10245;51.344;6.620;2023-04-28T03:05:47;34.78;;;17.63;;
20170;SDS011;10245;51.344;6.620;2023-04-28T03:08:11;27.75;;;16.27;;
20170;SDS011;10245;51.344;6.620;2023-04-28T03:10:36;47.33;;;16.60;;
20170;SDS011;10245;51.344;6.620;2023-04-28T03:12:59;25.52;;;14.27;;
20170;SDS011;10245;51.344;6.620;2023-04-28T03:15:23;21.50;;;13.45;;
20170;SDS011;10245;51.344;6.620;2023-04-28T03:17:47;15.65;;;12.07;;
20170;SDS011;10245;51.344;6.620;2023-04-28T03:20:11;16.02;;;10.80;;
20170;SDS011;10245;51.344;6.620;2023-04-28T03:22:36;14.43;;;10.90;;
20170;SDS011;10245;51.344;6.620;2023-04-28T03:24:59;19.58;;;11.50;;
20170;SDS011;10245;51.344;6.620;2023-04-28T03:27:27;12.98;;;9.15;;
20170;SDS011;10245;51.344;6.620;2023-04-28T03:29:51;14.63;;;10.77;;
20170;SDS011;10245;51.344;6.620;2023-04-28T03:32:14;16.95;;;10.73;;
20170;SDS011;10245;51.344;6.620;2023-04-28T03:34:38;16.35;;;10.15;;
20170;SDS011;10245;51.344;6.620;2023-04-28T03:37:01;16.75;;;9.60;;
20170;SDS011;10245;51.344;6.620;2023-04-28T03:39:26;17.05;;;11.07;;
20170;SDS011;10245;51.344;6.620;2023-04-28T03:41:49;15.32;;;10.20;;
20170;SDS011;10245;51.344;6.620;2023-04-28T03:44:31;14.50;;;9.45;;
20170;SDS011;10245;51.344;6.620;2023-04-28T03:46:55;14.10;;;9.90;;
20170;SDS011;10245;51.344;6.620;2023-04-28T03:49:18;12.95;;;10.13;;
20170;SDS011;10245;51.344;6.620;2023-04-28T03:51:42;14.20;;;9.68;;
20170;SDS011;10245;51.344;6.620;2023-04-28T03:54:05;14.75;;;9.65;;
20170;SDS011;10245;51.344;6.620;2023-04-28T03:56:30;14.43;;;9.70;;
20170;SDS011;10245;51.344;6.620;2023-04-28T03:58:55;12.70;;;9.95;;
20170;SDS011;10245;51.344;6.620;2023-04-28T04:01:18;14.52;;;10.68;;
20170;SDS011;10245;51.344;6.620;2023-04-28T04:03:42;13.85;;;10.73;;
20170;SDS011;10245;51.344;6.620;2023-04-28T04:06:06;15.75;;;10.20;;
20170;SDS011;10245;51.344;6.620;2023-04-28T04:08:29;15.82;;;10.18;;
20170;SDS011;10245;51.344;6.620;2023-04-28T04:10:53;16.92;;;10.27;;
20170;SDS011;10245;51.344;6.620;2023-04-28T04:13:18;16.27;;;11.43;;
20170;SDS011;10245;51.344;6.620;2023-04-28T04:15:42;14.07;;;10.73;;
20170;SDS011;10245;51.344;6.620;2023-04-28T04:18:05;17.67;;;9.98;;
20170;SDS011;10245;51.344;6.620;2023-04-28T04:20:51;12.30;;;9.48;;
20170;SDS011;10245;51.344;6.620;2023-04-28T04:23:16;16.75;;;10.63;;
20170;SDS011;10245;51.344;6.620;2023-04-28T04:25:40;14.82;;;10.90;;
20170;SDS011;10245;51.344;6.620;2023-04-28T04:28:03;14.15;;;9.68;;
20170;SDS011;10245;51.344;6.620;2023-04-28T04:30:29;15.52;;;10.45;;
20170;SDS011;10245;51.344;6.620;2023-04-28T04:32:52;15.98;;;10.27;;
20170;SDS011;10245;51.344;6.620;2023-04-28T04:35:16;15.77;;;10.30;;
20170;SDS011;10245;51.344;6.620;2023-04-28T04:37:39;12.50;;;9.35;;
20170;SDS011;10245;51.344;6.620;2023-04-28T04:40:03;16.88;;;9.85;;
20170;SDS011;10245;51.344;6.620;2023-04-28T04:42:35;15.75;;;10.18;;
20170;SDS011;10245;51.344;6.620;2023-04-28T04:45:04;15.90;;;9.80;;
20170;SDS011;10245;51.344;6.620;2023-04-28T04:47:31;16.50;;;10.07;;
20170;SDS011;10245;51.344;6.620;2023-04-28T04:49:54;12.02;;;9.80;;
20170;SDS011;10245;51.344;6.620;2023-04-28T04:52:18;21.27;;;11.20;;
20170;SDS011;10245;51.344;6.620;2023-04-28T04:54:41;13.80;;;9.77;;
20170;SDS011;10245;51.344;6.620;2023-04-28T04:57:04;15.00;;;10.57;;
20170;SDS011;10245;51.344;6.620;2023-04-28T04:59:50;13.77;;;10.00;;
20170;SDS011;10245;51.344;6.620;2023-04-28T05:02:14;15.40;;;10.38;;
20170;SDS011;10245;51.344;6.620;2023-04-28T05:04:39;14.85;;;9.70;;
20170;SDS011;10245;51.344;6.620;2023-04-28T05:07:04;13.63;;;9.95;;
20170;SDS011;10245;51.344;6.620;2023-04-28T05:09:28;11.15;;;9.35;;
20170;SDS011;10245;51.344;6.620;2023-04-28T05:11:53;16.17;;;8.93;;
20170;SDS011;10245;51.344;6.620;2023-04-28T05:14:17;12.50;;;8.70;;
20170;SDS011;10245;51.344;6.620;2023-04-28T05:16:40;13.35;;;9.30;;
20170;SDS011;10245;51.344;6.620;2023-04-28T05:19:24;13.55;;;9.30;;
20170;SDS011;10245;51.344;6.620;2023-04-28T05:21:49;12.43;;;8.77;;
20170;SDS011;10245;51.344;6.620;2023-04-28T05:24:15;14.43;;;9.07;;
20170;SDS011;10245;51.344;6.620;2023-04-28T05:26:42;14.52;;;8.68;;
20170;SDS011;10245;51.344;6.620;2023-04-28T05:29:06;11.63;;;8.15;;
20170;SDS011;10245;51.344;6.620;2023-04-28T05:31:29;15.80;;;9.30;;
20170;SDS011;10245;51.344;6.620;2023-04-28T05:33:53;16.52;;;9.02;;
20170;SDS011;10245;51.344;6.620;2023-04-28T05:36:17;13.00;;;9.13;;
20170;SDS011;10245;51.344;6.620;2023-04-28T05:38:41;11.63;;;9.20;;
20170;SDS011;10245;51.344;6.620;2023-04-28T05:41:06;12.63;;;9.57;;
20170;SDS011;10245;51.344;6.620;2023-04-28T05:43:29;13.02;;;9.25;;
20170;SDS011;10245;51.344;6.620;2023-04-28T05:45:52;14.90;;;10.20;;
20170;SDS011;10245;51.344;6.620;2023-04-28T05:48:16;13.55;;;9.55;;
20170;SDS011;10245;51.344;6.620;2023-04-28T05:50:39;12.30;;;8.35;;
20170;SDS011;10245;51.344;6.620;2023-04-28T05:53:04;15.57;;;9.35;;
20170;SDS011;10245;51.344;6.620;2023-04-28T05:55:29;11.77;;;8.95;;
20170;SDS011;10245;51.344;6.620;2023-04-28T05:57:54;11.68;;;8.65;;
20170;SDS011;10245;51.344;6.620;2023-04-28T06:00:17;14.07;;;8.95;;
20170;SDS011;10245;51.344;6.620;2023-04-28T06:02:42;16.83;;;8.73;;
20170;SDS011;10245;51.344;6.620;2023-04-28T06:05:06;14.43;;;10.15;;
20170;SDS011;10245;51.344;6.620;2023-04-28T06:07:31;12.00;;;9.15;;
20170;SDS011;10245;51.344;6.620;2023-04-28T06:09:54;12.90;;;8.27;;
20170;SDS011;10245;51.344;6.620;2023-04-28T06:12:19;12.85;;;8.88;;
20170;SDS011;10245;51.344;6.620;2023-04-28T06:14:44;13.98;;;8.98;;
20170;SDS011;10245;51.344;6.620;2023-04-28T06:17:07;11.73;;;8.93;;
20170;SDS011;10245;51.344;6.620;2023-04-28T06:19:31;12.35;;;8.82;;
20170;SDS011;10245;51.344;6.620;2023-04-28T06:21:54;12.18;;;8.90;;
20170;SDS011;10245;51.344;6.620;2023-04-28T06:24:17;12.60;;;8.93;;
20170;SDS011;10245;51.344;6.620;2023-04-28T06:26:46;14.95;;;9.18;;
20170;SDS011;10245;51.344;6.620;2023-04-28T06:29:10;13.63;;;8.95;;
20170;SDS011;10245;51.344;6.620;2023-04-28T06:31:34;13.80;;;7.95;;
20170;SDS011;10245;51.344;6.620;2023-04-28T06:33:57;15.07;;;8.63;;
20170;SDS011;10245;51.344;6.620;2023-04-28T06:36:21;10.35;;;8.10;;
20170;SDS011;10245;51.344;6.620;2023-04-28T06:38:45;12.10;;;8.35;;
20170;SDS011;10245;51.344;6.620;2023-04-28T06:41:09;12.68;;;8.02;;
20170;SDS011;10245;51.344;6.620;2023-04-28T06:43:34;10.23;;;8.40;;
20170;SDS011;10245;51.344;6.620;2023-04-28T06:46:03;11.68;;;8.80;;
20170;SDS011;10245;51.344;6.620;2023-04-28T06:48:27;14.07;;;8.77;;
20170;SDS011;10245;51.344;6.620;2023-04-28T06:50:50;14.18;;;8.50;;
20170;SDS011;10245;51.344;6.620;2023-04-28T06:53:16;12.02;;;8.73;;
20170;SDS011;10245;51.344;6.620;2023-04-28T06:55:39;13.75;;;8.90;;
20170;SDS011;10245;51.344;6.620;2023-04-28T06:58:03;10.80;;;7.68;;
20170;SDS011;10245;51.344;6.620;2023-04-28T07:00:27;13.57;;;7.55;;
20170;SDS011;10245;51.344;6.620;2023-04-28T07:02:52;11.18;;;8.10;;
20170;SDS011;10245;51.344;6.620;2023-04-28T07:05:16;13.10;;;8.70;;
20170;SDS011;10245;51.344;6.620;2023-04-28T07:07:39;13.45;;;8.57;;
20170;SDS011;10245;51.344;6.620;2023-04-28T07:10:03;13.50;;;8.43;;
20170;SDS011;10245;51.344;6.620;2023-04-28T07:12:27;13.80;;;8.75;;
20170;SDS011;10245;51.344;6.620;2023-04-28T07:14:50;11.93;;;8.65;;
20170;SDS011;10245;51.344;6.620;2023-04-28T07:17:13;12.70;;;8.52;;
20170;SDS011;10245;51.344;6.620;2023-04-28T07:19:38;14.52;;;9.48;;
20170;SDS011;10245;51.344;6.620;2023-04-28T07:22:01;17.08;;;9.90;;
20170;SDS011;10245;51.344;6.620;2023-04-28T07:24:25;12.20;;;8.88;;
20170;SDS011;10245;51.344;6.620;2023-04-28T07:26:48;14.68;;;10.25;;
20170;SDS011;10245;51.344;6.620;2023-04-28T07:29:12;14.63;;;10.18;;
20170;SDS011;10245;51.344;6.620;2023-04-28T07:31:36;15.27;;;9.63;;
20170;SDS011;10245;51.344;6.620;2023-04-28T07:33:59;14.27;;;10.32;;
20170;SDS011;10245;51.344;6.620;2023-04-28T07:36:24;15.60;;;10.48;;
20170;SDS011;10245;51.344;6.620;2023-04-28T07:38:47;15.63;;;10.50;;
20170;SDS011;10245;51.344;6.620;2023-04-28T07:41:11;13.57;;;9.50;;
20170;SDS011;10245;51.344;6.620;2023-04-28T07:43:34;11.93;;;9.27;;
20170;SDS011;10245;51.344;6.620;2023-04-28T07:45:57;13.30;;;9.60;;
20170;SDS011;10245;51.344;6.620;2023-04-28T07:48:21;14.57;;;10.23;;
20170;SDS011;10245;51.344;6.620;2023-04-28T07:50:44;16.58;;;9.57;;
20170;SDS011;10245;51.344;6.620;2023-04-28T07:53:09;11.40;;;9.15;;
20170;SDS011;10245;51.344;6.620;2023-04-28T07:55:33;15.13;;;9.10;;
20170;SDS011;10245;51.344;6.620;2023-04-28T07:57:56;11.75;;;8.30;;
20170;SDS011;10245;51.344;6.620;2023-04-28T08:00:20;11.65;;;8.45;;
20170;SDS011;10245;51.344;6.620;2023-04-28T08:02:43;13.88;;;8.45;;
20170;SDS011;10245;51.344;6.620;2023-04-28T08:05:07;12.85;;;8.82;;
20170;SDS011;10245;51.344;6.620;2023-04-28T08:07:31;13.15;;;9.52;;
20170;SDS011;10245;51.344;6.620;2023-04-28T08:09:56;14.13;;;9.20;;
20170;SDS011;10245;51.344;6.620;2023-04-28T08:12:20;11.35;;;8.93;;
20170;SDS011;10245;51.344;6.620;2023-04-28T08:14:43;12.82;;;9.00;;
20170;SDS011;10245;51.344;6.620;2023-04-28T08:17:06;12.30;;;9.10;;
20170;SDS011;10245;51.344;6.620;2023-04-28T08:19:30;11.60;;;8.98;;
20170;SDS011;10245;51.344;6.620;2023-04-28T08:21:53;14.15;;;9.18;;
20170;SDS011;10245;51.344;6.620;2023-04-28T08:24:17;17.35;;;10.45;;
20170;SDS011;10245;51.344;6.620;2023-04-28T08:26:41;12.75;;;9.07;;
20170;SDS011;10245;51.344;6.620;2023-04-28T08:29:05;11.73;;;8.70;;
20170;SDS011;10245;51.344;6.620;2023-04-28T08:31:29;12.32;;;9.98;;
20170;SDS011;10245;51.344;6.620;2023-04-28T08:33:52;12.35;;;8.85;;
20170;SDS011;10245;51.344;6.620;2023-04-28T08:36:16;15.65;;;10.52;;
20170;SDS011;10245;51.344;6.620;2023-04-28T08:38:39;16.88;;;11.27;;
20170;SDS011;10245;51.344;6.620;2023-04-28T08:41:03;19.38;;;10.52;;
20170;SDS011;10245;51.344;6.620;2023-04-28T08:43:28;12.07;;;9.18;;
20170;SDS011;10245;51.344;6.620;2023-04-28T08:45:51;17.65;;;11.02;;
20170;SDS011;10245;51.344;6.620;2023-04-28T08:48:16;17.52;;;11.05;;
20170;SDS011;10245;51.344;6.620;2023-04-28T08:50:41;19.45;;;10.93;;
20170;SDS011;10245;51.344;6.620;2023-04-28T08:53:11;14.30;;;10.43;;
20170;SDS011;10245;51.344;6.620;2023-04-28T08:55:38;14.52;;;10.40;;
20170;SDS011;10245;51.344;6.620;2023-04-28T08:58:01;14.68;;;9.65;;
20170;SDS011;10245;51.344;6.620;2023-04-28T09:00:27;10.88;;;9.25;;
20170;SDS011;10245;51.344;6.620;2023-04-28T09:02:50;12.02;;;9.80;;
20170;SDS011;10245;51.344;6.620;2023-04-28T09:05:14;14.18;;;9.80;;
20170;SDS011;10245;51.344;6.620;2023-04-28T09:07:37;11.77;;;9.35;;
20170;SDS011;10245;51.344;6.620;2023-04-28T09:12:47;11.50;;;9.23;;
20170;SDS011;10245;51.344;6.620;2023-04-28T09:15:28;15.95;;;9.50;;
20170;SDS011;10245;51.344;6.620;2023-04-28T09:17:54;16.50;;;9.90;;
20170;SDS011;10245;51.344;6.620;2023-04-28T09:20:18;16.38;;;10.15;;
20170;SDS011;10245;51.344;6.620;2023-04-28T09:22:43;11.07;;;8.68;;
20170;SDS011;10245;51.344;6.620;2023-04-28T09:25:09;14.38;;;9.68;;
20170;SDS011;10245;51.344;6.620;2023-04-28T09:27:33;12.27;;;9.27;;
20170;SDS011;10245;51.344;6.620;2023-04-28T09:29:57;12.90;;;9.48;;
20170;SDS011;10245;51.344;6.620;2023-04-28T09:32:22;11.88;;;9.52;;
20170;SDS011;10245;51.344;6.620;2023-04-28T09:34:49;15.30;;;11.75;;
20170;SDS011;10245;51.344;6.620;2023-04-28T09:37:14;14.68;;;10.25;;
20170;SDS011;10245;51.344;6.620;2023-04-28T09:39:40;14.45;;;10.65;;
20170;SDS011;10245;51.344;6.620;2023-04-28T09:42:03;14.23;;;10.88;;
20170;SDS011;10245;51.344;6.620;2023-04-28T09:44:27;12.25;;;9.95;;
20170;SDS011;10245;51.344;6.620;2023-04-28T09:46:50;13.30;;;9.60;;
20170;SDS011;10245;51.344;6.620;2023-04-28T09:49:14;14.07;;;9.98;;
20170;SDS011;10245;51.344;6.620;2023-04-28T09:51:38;16.17;;;10.20;;
20170;SDS011;10245;51.344;6.620;2023-04-28T09:54:02;15.23;;;10.85;;
20170;SDS011;10245;51.344;6.620;2023-04-28T09:56:25;13.10;;;10.75;;
20170;SDS011;10245;51.344;6.620;2023-04-28T09:58:50;17.23;;;11.25;;
20170;SDS011;10245;51.344;6.620;2023-04-28T10:01:15;15.13;;;10.70;;
20170;SDS011;10245;51.344;6.620;2023-04-28T10:03:39;16.20;;;10.65;;
20170;SDS011;10245;51.344;6.620;2023-04-28T10:06:06;15.38;;;12.27;;
20170;SDS011;10245;51.344;6.620;2023-04-28T10:08:29;16.67;;;12.38;;
20170;SDS011;10245;51.344;6.620;2023-04-28T10:10:52;22.25;;;13.02;;
20170;SDS011;10245;51.344;6.620;2023-04-28T10:13:17;17.00;;;13.13;;
20170;SDS011;10245;51.344;6.620;2023-04-28T10:15:41;17.10;;;12.65;;
20170;SDS011;10245;51.344;6.620;2023-04-28T10:18:04;17.23;;;12.98;;
20170;SDS011;10245;51.344;6.620;2023-04-28T10:20:29;13.82;;;11.90;;
20170;SDS011;10245;51.344;6.620;2023-04-28T10:22:57;15.88;;;13.38;;
20170;SDS011;10245;51.344;6.620;2023-04-28T10:25:30;18.08;;;13.43;;
20170;SDS011;10245;51.344;6.620;2023-04-28T10:27:57;20.23;;;14.07;;
20170;SDS011;10245;51.344;6.620;2023-04-28T10:30:23;19.88;;;15.07;;
20170;SDS011;10245;51.344;6.620;2023-04-28T10:35:47;19.38;;;15.50;;
20170;SDS011;10245;51.344;6.620;2023-04-28T10:38:13;18.58;;;15.40;;
20170;SDS011;10245;51.344;6.620;2023-04-28T10:40:38;16.77;;;14.98;;
20170;SDS011;10245;51.344;6.620;2023-04-28T10:43:03;19.27;;;16.10;;
20170;SDS011;10245;51.344;6.620;2023-04-28T10:48:50;22.02;;;17.05;;
20170;SDS011;10245;51.344;6.620;2023-04-28T10:51:30;17.80;;;15.90;;
20170;SDS011;10245;51.344;6.620;2023-04-28T10:59:45;17.17;;;14.02;;
20170;SDS011;10245;51.344;6.620;2023-04-28T11:05:12;20.92;;;16.23;;
20170;SDS011;10245;51.344;6.620;2023-04-28T11:07:39;18.35;;;15.43;;
20170;SDS011;10245;51.344;6.620;2023-04-28T11:10:05;18.52;;;13.35;;
20170;SDS011;10245;51.344;6.620;2023-04-28T11:12:29;18.05;;;15.15;;
20170;SDS011;10245;51.344;6.620;2023-04-28T11:14:52;16.77;;;14.93;;
20170;SDS011;10245;51.344;6.620;2023-04-28T11:17:16;18.95;;;16.95;;
20170;SDS011;10245;51.344;6.620;2023-04-28T11:19:43;17.13;;;15.32;;
20170;SDS011;10245;51.344;6.620;2023-04-28T11:22:12;18.30;;;15.23;;
20170;SDS011;10245;51.344;6.620;2023-04-28T11:24:37;17.75;;;14.43;;
20170;SDS011;10245;51.344;6.620;2023-04-28T11:27:02;15.48;;;13.65;;
20170;SDS011;10245;51.344;6.620;2023-04-28T11:29:31;17.50;;;14.77;;
20170;SDS011;10245;51.344;6.620;2023-04-28T11:31:57;16.35;;;13.23;;
20170;SDS011;10245;51.344;6.620;2023-04-28T11:34:21;15.07;;;13.00;;
20170;SDS011;10245;51.344;6.620;2023-04-28T11:36:47;14.30;;;12.43;;
20170;SDS011;10245;51.344;6.620;2023-04-28T11:39:12;13.30;;;11.75;;
20170;SDS011;10245;51.344;6.620;2023-04-28T11:41:36;12.90;;;11.57;;
20170;SDS011;10245;51.344;6.620;2023-04-28T11:44:09;12.55;;;11.10;;
20170;SDS011;10245;51.344;6.620;2023-04-28T11:46:33;11.88;;;10.68;;
20170;SDS011;10245;51.344;6.620;2023-04-28T11:49:01;13.88;;;11.50;;
20170;SDS011;10245;51.344;6.620;2023-04-28T11:51:27;13.95;;;12.45;;
20170;SDS011;10245;51.344;6.620;2023-04-28T11:53:58;14.07;;;11.50;;
20170;SDS011;10245;51.344;6.620;2023-04-28T11:56:23;12.85;;;10.75;;
20170;SDS011;10245;51.344;6.620;2023-04-28T11:58:58;11.40;;;10.30;;
20170;SDS011;10245;51.344;6.620;2023-04-28T12:01:27;12.00;;;10.80;;
20170;SDS011;10245;51.344;6.620;2023-04-28T12:03:50;12.63;;;10.60;;
20170;SDS011;10245;51.344;6.620;2023-04-28T12:06:15;11.38;;;9.98;;
20170;SDS011;10245;51.344;6.620;2023-04-28T12:08:40;10.35;;;9.45;;
20170;SDS011;10245;51.344;6.620;2023-04-28T12:11:06;10.80;;;9.75;;
20170;SDS011;10245;51.344;6.620;2023-04-28T12:13:31;10.52;;;9.10;;
20170;SDS011;10245;51.344;6.620;2023-04-28T12:15:56;11.07;;;9.93;;
20170;SDS011;10245;51.344;6.620;2023-04-28T12:18:23;10.82;;;9.82;;
20170;SDS011;10245;51.344;6.620;2023-04-28T12:20:46;10.30;;;9.07;;
20170;SDS011;10245;51.344;6.620;2023-04-28T12:23:10;13.45;;;9.15;;
20170;SDS011;10245;51.344;6.620;2023-04-28T12:25:41;9.55;;;8.65;;
20170;SDS011;10245;51.344;6.620;2023-04-28T12:28:06;10.07;;;9.05;;
20170;SDS011;10245;51.344;6.620;2023-04-28T12:30:31;10.50;;;9.50;;
20170;SDS011;10245;51.344;6.620;2023-04-28T12:32:56;9.82;;;8.93;;
20170;SDS011;10245;51.344;6.620;2023-04-28T12:35:21;9.45;;;8.60;;
20170;SDS011;10245;51.344;6.620;2023-04-28T12:37:45;10.45;;;9.13;;
20170;SDS011;10245;51.344;6.620;2023-04-28T12:40:09;8.90;;;8.10;;
20170;SDS011;10245;51.344;6.620;2023-04-28T12:42:34;8.32;;;7.53;;
20170;SDS011;10245;51.344;6.620;2023-04-28T12:44:58;7.97;;;7.20;;
20170;SDS011;10245;51.344;6.620;2023-04-28T12:47:21;9.35;;;8.45;;
20170;SDS011;10245;51.344;6.620;2023-04-28T12:49:45;8.63;;;7.82;;
20170;SDS011;10245;51.344;6.620;2023-04-28T12:52:12;9.63;;;8.02;;
20170;SDS011;10245;51.344;6.620;2023-04-28T12:54:35;8.85;;;8.05;;
20170;SDS011;10245;51.344;6.620;2023-04-28T12:56:59;8.73;;;7.40;;
20170;SDS011;10245;51.344;6.620;2023-04-28T12:59:22;7.97;;;6.55;;
20170;SDS011;10245;51.344;6.620;2023-04-28T13:01:46;7.63;;;6.75;;
20170;SDS011;10245;51.344;6.620;2023-04-28T13:04:09;9.15;;;7.30;;
20170;SDS011;10245;51.344;6.620;2023-04-28T13:06:33;7.95;;;7.15;;
20170;SDS011;10245;51.344;6.620;2023-04-28T13:08:58;8.15;;;7.40;;
20170;SDS011;10245;51.344;6.620;2023-04-28T13:11:21;8.00;;;7.20;;
20170;SDS011;10245;51.344;6.620;2023-04-28T13:13:47;7.40;;;6.72;;
20170;SDS011;10245;51.344;6.620;2023-04-28T13:16:11;6.85;;;6.25;;
20170;SDS011;10245;51.344;6.620;2023-04-28T13:18:35;7.82;;;6.60;;
20170;SDS011;10245;51.344;6.620;2023-04-28T13:20:59;7.55;;;6.85;;
20170;SDS011;10245;51.344;6.620;2023-04-28T13:23:22;8.48;;;7.47;;
20170;SDS011;10245;51.344;6.620;2023-04-28T13:25:46;8.07;;;6.40;;
20170;SDS011;10245;51.344;6.620;2023-04-28T13:28:10;8.10;;;7.32;;
20170;SDS011;10245;51.344;6.620;2023-04-28T13:30:33;9.10;;;7.07;;
20170;SDS011;10245;51.344;6.620;2023-04-28T13:32:57;6.82;;;6.20;;
20170;SDS011;10245;51.344;6.620;2023-04-28T13:35:20;7.13;;;5.93;;
20170;SDS011;10245;51.344;6.620;2023-04-28T13:37:43;8.27;;;7.47;;
20170;SDS011;10245;51.344;6.620;2023-04-28T13:40:07;7.60;;;6.82;;
20170;SDS011;10245;51.344;6.620;2023-04-28T13:42:33;7.32;;;6.50;;
20170;SDS011;10245;51.344;6.620;2023-04-28T13:44:57;6.57;;;5.97;;
20170;SDS011;10245;51.344;6.620;2023-04-28T13:47:20;6.95;;;6.35;;
20170;SDS011;10245;51.344;6.620;2023-04-28T13:49:44;6.18;;;5.57;;
20170;SDS011;10245;51.344;6.620;2023-04-28T13:52:08;5.68;;;5.15;;
20170;SDS011;10245;51.344;6.620;2023-04-28T13:54:31;5.10;;;4.63;;
20170;SDS011;10245;51.344;6.620;2023-04-28T13:56:55;5.82;;;5.22;;
20170;SDS011;10245;51.344;6.620;2023-04-28T13:59:19;4.82;;;4.43;;
20170;SDS011;10245;51.344;6.620;2023-04-28T14:01:43;4.75;;;3.53;;
20170;SDS011;10245;51.344;6.620;2023-04-28T14:04:06;6.25;;;2.88;;
20170;SDS011;10245;51.344;6.620;2023-04-28T14:06:30;3.53;;;2.75;;
20170;SDS011;10245;51.344;6.620;2023-04-28T14:08:55;5.53;;;2.78;;
20170;SDS011;10245;51.344;6.620;2023-04-28T14:11:18;3.78;;;2.70;;
20170;SDS011;10245;51.344;6.620;2023-04-28T14:13:41;3.00;;;2.65;;
20170;SDS011;10245;51.344;6.620;2023-04-28T14:16:06;2.95;;;2.30;;
20170;SDS011;10245;51.344;6.620;2023-04-28T14:18:30;4.25;;;2.47;;
20170;SDS011;10245;51.344;6.620;2023-04-28T14:20:54;7.97;;;2.20;;
20170;SDS011;10245;51.344;6.620;2023-04-28T14:23:18;2.97;;;2.30;;
20170;SDS011;10245;51.344;6.620;2023-04-28T14:25:41;3.85;;;2.10;;
20170;SDS011;10245;51.344;6.620;2023-04-28T14:28:05;3.75;;;2.05;;
20170;SDS011;10245;51.344;6.620;2023-04-28T14:30:28;2.33;;;2.13;;
20170;SDS011;10245;51.344;6.620;2023-04-28T14:32:53;2.33;;;2.00;;